sensor_id;sensor_type;location;lat;lon;timestamp;pressure;altitude;pressure_sealevel;temperature;humidity
76128;BME280;64873;50.102;14.434;2024-03-06T00:01:31;99342.44;;;7.21;78.36
76128;BME280;64873;50.102;14.434;2024-03-06T00:03:57;99339.31;;;7.18;78.67
76128;BME280;64873;50.102;14.434;2024-03-06T00:06:23;99335.22;;;7.15;78.99
76128;BME280;64873;50.102;14.434;2024-03-06T00:08:49;99350.94;;;7.10;79.52
76128;BME280;64873;50.102;14.434;2024-03-06T00:11:15;99337.00;;;7.08;79.59
76128;BME280;64873;50.102;14.434;2024-03-06T00:13:40;99355.75;;;7.00;80.11
76128;BME280;64873;50.102;14.434;2024-03-06T00:16:06;99330.72;;;6.88;80.43
76128;BME280;64873;50.102;14.434;2024-03-06T00:18:31;99331.97;;;6.92;80.06
76128;BME280;64873;50.102;14.434;2024-03-06T00:20:56;99350.44;;;7.00;80.36
76128;BME280;64873;50.102;14.434;2024-03-06T00:23:22;99346.66;;;6.88;80.83
76128;BME280;64873;50.102;14.434;2024-03-06T00:25:47;99353.22;;;6.92;81.27
76128;BME280;64873;50.102;14.434;2024-03-06T00:28:13;99358.41;;;7.00;81.04
76128;BME280;64873;50.102;14.434;2024-03-06T00:30:38;99347.41;;;6.82;81.24
76128;BME280;64873;50.102;14.434;2024-03-06T00:33:03;99359.41;;;6.78;82.28
76128;BME280;64873;50.102;14.434;2024-03-06T00:35:29;99342.59;;;6.71;82.46
76128;BME280;64873;50.102;14.434;2024-03-06T00:37:54;99357.78;;;6.77;81.83
76128;BME280;64873;50.102;14.434;2024-03-06T00:40:20;99371.50;;;6.80;82.10
76128;BME280;64873;50.102;14.434;2024-03-06T00:42:45;99370.19;;;6.70;82.08
76128;BME280;64873;50.102;14.434;2024-03-06T00:45:11;99356.66;;;6.64;82.10
76128;BME280;64873;50.102;14.434;2024-03-06T00:47:37;99365.22;;;6.66;81.43
76128;BME280;64873;50.102;14.434;2024-03-06T00:50:02;99381.94;;;6.82;81.62
76128;BME280;64873;50.102;14.434;2024-03-06T00:52:28;99385.09;;;6.92;80.58
76128;BME280;64873;50.102;14.434;2024-03-06T00:54:53;99385.97;;;6.99;79.64
76128;BME280;64873;50.102;14.434;2024-03-06T00:57:19;99386.34;;;6.96;79.70
76128;BME280;64873;50.102;14.434;2024-03-06T00:59:44;99381.81;;;6.90;80.04
76128;BME280;64873;50.102;14.434;2024-03-06T01:02:09;99380.59;;;6.71;80.27
76128;BME280;64873;50.102;14.434;2024-03-06T01:04:35;99384.47;;;6.68;80.95
76128;BME280;64873;50.102;14.434;2024-03-06T01:07:00;99390.66;;;6.76;80.00
76128;BME280;64873;50.102;14.434;2024-03-06T01:09:26;99365.13;;;6.75;78.96
76128;BME280;64873;50.102;14.434;2024-03-06T01:11:52;99382.13;;;6.80;79.54
76128;BME280;64873;50.102;14.434;2024-03-06T01:14:17;99377.50;;;6.67;80.08
76128;BME280;64873;50.102;14.434;2024-03-06T01:16:43;99372.69;;;6.78;79.34
76128;BME280;64873;50.102;14.434;2024-03-06T01:19:08;99385.41;;;6.82;78.80
76128;BME280;64873;50.102;14.434;2024-03-06T01:21:34;99363.59;;;6.65;77.92
76128;BME280;64873;50.102;14.434;2024-03-06T01:24:00;99383.72;;;6.75;78.22
76128;BME280;64873;50.102;14.434;2024-03-06T01:26:25;99370.75;;;6.65;77.37
76128;BME280;64873;50.102;14.434;2024-03-06T01:28:51;99377.00;;;6.57;78.34
76128;BME280;64873;50.102;14.434;2024-03-06T01:31:17;99384.19;;;6.42;79.33
76128;BME280;64873;50.102;14.434;2024-03-06T01:33:42;99397.09;;;6.66;78.53
76128;BME280;64873;50.102;14.434;2024-03-06T01:36:07;99390.00;;;6.52;79.08
76128;BME280;64873;50.102;14.434;2024-03-06T01:38:33;99384.91;;;6.36;79.87
76128;BME280;64873;50.102;14.434;2024-03-06T01:40:58;99387.69;;;6.28;80.80
76128;BME280;64873;50.102;14.434;2024-03-06T01:43:25;99363.75;;;6.06;81.24
76128;BME280;64873;50.102;14.434;2024-03-06T01:45:51;99381.31;;;6.07;82.38
76128;BME280;64873;50.102;14.434;2024-03-06T01:48:21;99390.34;;;6.13;81.47
76128;BME280;64873;50.102;14.434;2024-03-06T01:50:48;99400.34;;;6.11;81.31
76128;BME280;64873;50.102;14.434;2024-03-06T01:53:14;99379.13;;;5.96;81.83
76128;BME280;64873;50.102;14.434;2024-03-06T01:55:42;99406.47;;;5.97;82.18
76128;BME280;64873;50.102;14.434;2024-03-06T01:58:08;99384.13;;;5.76;82.96
76128;BME280;64873;50.102;14.434;2024-03-06T02:00:34;99393.66;;;5.71;84.18
76128;BME280;64873;50.102;14.434;2024-03-06T02:03:00;99390.44;;;5.60;84.38
76128;BME280;64873;50.102;14.434;2024-03-06T02:05:27;99405.03;;;5.56;84.79
76128;BME280;64873;50.102;14.434;2024-03-06T02:07:53;99401.94;;;5.68;84.36
76128;BME280;64873;50.102;14.434;2024-03-06T02:10:19;99395.63;;;5.54;84.65
76128;BME280;64873;50.102;14.434;2024-03-06T02:12:44;99389.88;;;5.50;84.99
76128;BME280;64873;50.102;14.434;2024-03-06T02:15:10;99401.66;;;5.48;85.19
76128;BME280;64873;50.102;14.434;2024-03-06T02:17:37;99398.63;;;5.36;85.68
76128;BME280;64873;50.102;14.434;2024-03-06T02:20:03;99406.94;;;5.33;85.58
76128;BME280;64873;50.102;14.434;2024-03-06T02:22:32;99407.13;;;5.31;86.52
76128;BME280;64873;50.102;14.434;2024-03-06T02:24:57;99390.53;;;5.15;86.73
76128;BME280;64873;50.102;14.434;2024-03-06T02:27:23;99398.47;;;5.15;86.96
76128;BME280;64873;50.102;14.434;2024-03-06T02:29:48;99414.44;;;5.29;86.78
76128;BME280;64873;50.102;14.434;2024-03-06T02:32:14;99391.53;;;5.14;87.18
76128;BME280;64873;50.102;14.434;2024-03-06T02:34:40;99419.44;;;5.24;87.20
76128;BME280;64873;50.102;14.434;2024-03-06T02:37:06;99403.63;;;5.16;87.27
76128;BME280;64873;50.102;14.434;2024-03-06T02:39:31;99423.63;;;5.19;88.23
76128;BME280;64873;50.102;14.434;2024-03-06T02:41:57;99412.69;;;5.22;87.73
76128;BME280;64873;50.102;14.434;2024-03-06T02:44:22;99404.56;;;5.23;86.91
76128;BME280;64873;50.102;14.434;2024-03-06T02:46:48;99428.78;;;5.35;87.24
76128;BME280;64873;50.102;14.434;2024-03-06T02:49:15;99436.25;;;5.31;86.96
76128;BME280;64873;50.102;14.434;2024-03-06T02:51:40;99438.91;;;5.31;86.79
76128;BME280;64873;50.102;14.434;2024-03-06T02:54:06;99439.09;;;5.30;86.70
76128;BME280;64873;50.102;14.434;2024-03-06T02:56:31;99412.69;;;5.37;85.77
76128;BME280;64873;50.102;14.434;2024-03-06T02:58:57;99422.91;;;5.25;86.40
76128;BME280;64873;50.102;14.434;2024-03-06T03:01:22;99421.25;;;5.24;85.87
76128;BME280;64873;50.102;14.434;2024-03-06T03:03:48;99439.59;;;5.48;84.99
76128;BME280;64873;50.102;14.434;2024-03-06T03:06:14;99431.03;;;5.23;85.50
76128;BME280;64873;50.102;14.434;2024-03-06T03:08:39;99434.50;;;5.24;85.97
76128;BME280;64873;50.102;14.434;2024-03-06T03:11:05;99436.53;;;5.37;85.99
76128;BME280;64873;50.102;14.434;2024-03-06T03:13:30;99438.00;;;5.01;86.96
76128;BME280;64873;50.102;14.434;2024-03-06T03:15:56;99445.09;;;5.24;86.30
76128;BME280;64873;50.102;14.434;2024-03-06T03:18:22;99422.22;;;5.08;86.71
76128;BME280;64873;50.102;14.434;2024-03-06T03:20:47;99424.56;;;5.03;86.83
76128;BME280;64873;50.102;14.434;2024-03-06T03:23:13;99423.03;;;5.08;86.33
76128;BME280;64873;50.102;14.434;2024-03-06T03:25:40;99421.50;;;4.91;87.58
76128;BME280;64873;50.102;14.434;2024-03-06T03:28:06;99436.81;;;5.04;87.08
76128;BME280;64873;50.102;14.434;2024-03-06T03:30:32;99446.34;;;5.13;86.38
76128;BME280;64873;50.102;14.434;2024-03-06T03:32:57;99445.53;;;5.13;86.32
76128;BME280;64873;50.102;14.434;2024-03-06T03:35:23;99439.28;;;5.05;86.59
76128;BME280;64873;50.102;14.434;2024-03-06T03:37:53;99439.34;;;4.97;86.11
76128;BME280;64873;50.102;14.434;2024-03-06T03:40:20;99411.22;;;4.96;85.40
76128;BME280;64873;50.102;14.434;2024-03-06T03:42:46;99423.41;;;5.05;85.83
76128;BME280;64873;50.102;14.434;2024-03-06T03:45:11;99424.63;;;5.18;85.08
76128;BME280;64873;50.102;14.434;2024-03-06T03:47:37;99447.72;;;5.47;84.18
76128;BME280;64873;50.102;14.434;2024-03-06T03:50:03;99448.44;;;5.41;84.68
76128;BME280;64873;50.102;14.434;2024-03-06T03:52:29;99448.59;;;5.39;84.21
76128;BME280;64873;50.102;14.434;2024-03-06T03:54:55;99448.34;;;5.34;83.63
76128;BME280;64873;50.102;14.434;2024-03-06T03:57:20;99432.56;;;5.18;84.54
76128;BME280;64873;50.102;14.434;2024-03-06T03:59:46;99440.22;;;5.13;84.55
76128;BME280;64873;50.102;14.434;2024-03-06T04:02:11;99458.25;;;5.17;85.24
76128;BME280;64873;50.102;14.434;2024-03-06T04:04:36;99446.47;;;5.20;84.33
76128;BME280;64873;50.102;14.434;2024-03-06T04:07:02;99458.34;;;5.24;84.73
76128;BME280;64873;50.102;14.434;2024-03-06T04:09:28;99467.66;;;5.20;84.84
76128;BME280;64873;50.102;14.434;2024-03-06T04:11:53;99456.41;;;5.18;84.64
76128;BME280;64873;50.102;14.434;2024-03-06T04:14:18;99455.47;;;5.11;84.66
76128;BME280;64873;50.102;14.434;2024-03-06T04:16:46;99453.28;;;5.14;84.18
76128;BME280;64873;50.102;14.434;2024-03-06T04:19:12;99469.28;;;5.21;84.17
76128;BME280;64873;50.102;14.434;2024-03-06T04:21:43;99451.06;;;5.03;84.38
76128;BME280;64873;50.102;14.434;2024-03-06T04:24:09;99465.72;;;5.14;84.69
76128;BME280;64873;50.102;14.434;2024-03-06T04:26:35;99463.78;;;5.07;85.10
76128;BME280;64873;50.102;14.434;2024-03-06T04:29:00;99461.00;;;5.24;84.71
76128;BME280;64873;50.102;14.434;2024-03-06T04:31:27;99468.63;;;5.42;83.33
76128;BME280;64873;50.102;14.434;2024-03-06T04:33:52;99457.34;;;5.25;83.66
76128;BME280;64873;50.102;14.434;2024-03-06T04:36:18;99456.19;;;5.04;84.52
76128;BME280;64873;50.102;14.434;2024-03-06T04:38:43;99473.72;;;5.28;84.14
76128;BME280;64873;50.102;14.434;2024-03-06T04:41:08;99468.94;;;5.47;83.57
76128;BME280;64873;50.102;14.434;2024-03-06T04:43:35;99475.41;;;5.44;83.11
76128;BME280;64873;50.102;14.434;2024-03-06T04:46:01;99480.84;;;5.28;83.77
76128;BME280;64873;50.102;14.434;2024-03-06T04:48:26;99472.53;;;5.31;84.00
76128;BME280;64873;50.102;14.434;2024-03-06T04:50:52;99462.84;;;5.23;83.62
76128;BME280;64873;50.102;14.434;2024-03-06T04:53:18;99469.38;;;5.50;83.32
76128;BME280;64873;50.102;14.434;2024-03-06T04:55:45;99471.41;;;5.48;82.56
76128;BME280;64873;50.102;14.434;2024-03-06T04:58:11;99477.81;;;5.54;82.89
76128;BME280;64873;50.102;14.434;2024-03-06T05:00:37;99458.81;;;5.27;83.54
76128;BME280;64873;50.102;14.434;2024-03-06T05:03:02;99471.91;;;5.29;83.67
76128;BME280;64873;50.102;14.434;2024-03-06T05:05:27;99480.56;;;5.60;82.93
76128;BME280;64873;50.102;14.434;2024-03-06T05:07:53;99457.44;;;5.54;82.07
76128;BME280;64873;50.102;14.434;2024-03-06T05:10:18;99477.28;;;5.58;82.41
76128;BME280;64873;50.102;14.434;2024-03-06T05:12:44;99471.28;;;5.42;82.88
76128;BME280;64873;50.102;14.434;2024-03-06T05:15:10;99464.81;;;5.21;83.20
76128;BME280;64873;50.102;14.434;2024-03-06T05:17:35;99471.00;;;5.37;82.44
76128;BME280;64873;50.102;14.434;2024-03-06T05:20:01;99488.25;;;5.32;83.02
76128;BME280;64873;50.102;14.434;2024-03-06T05:22:29;99474.59;;;5.21;83.51
76128;BME280;64873;50.102;14.434;2024-03-06T05:24:54;99494.63;;;5.46;83.04
76128;BME280;64873;50.102;14.434;2024-03-06T05:27:20;99492.13;;;5.45;83.53
76128;BME280;64873;50.102;14.434;2024-03-06T05:29:46;99481.19;;;5.25;83.39
76128;BME280;64873;50.102;14.434;2024-03-06T05:32:12;99507.97;;;5.30;84.05
76128;BME280;64873;50.102;14.434;2024-03-06T05:34:38;99501.44;;;5.18;84.20
76128;BME280;64873;50.102;14.434;2024-03-06T05:37:03;99493.13;;;5.21;84.04
76128;BME280;64873;50.102;14.434;2024-03-06T05:39:30;99498.50;;;5.35;84.00
76128;BME280;64873;50.102;14.434;2024-03-06T05:42:00;99501.06;;;5.44;83.83
76128;BME280;64873;50.102;14.434;2024-03-06T05:44:26;99510.84;;;5.43;83.31
76128;BME280;64873;50.102;14.434;2024-03-06T05:46:51;99501.25;;;5.42;83.43
76128;BME280;64873;50.102;14.434;2024-03-06T05:49:17;99489.63;;;5.28;83.49
76128;BME280;64873;50.102;14.434;2024-03-06T05:51:42;99512.50;;;5.44;83.43
76128;BME280;64873;50.102;14.434;2024-03-06T05:54:08;99514.50;;;5.42;83.49
76128;BME280;64873;50.102;14.434;2024-03-06T05:56:37;99512.50;;;5.44;83.62
76128;BME280;64873;50.102;14.434;2024-03-06T05:59:04;99504.63;;;5.36;83.20
76128;BME280;64873;50.102;14.434;2024-03-06T06:01:33;99518.16;;;5.41;83.57
76128;BME280;64873;50.102;14.434;2024-03-06T06:03:58;99525.81;;;5.36;83.93
76128;BME280;64873;50.102;14.434;2024-03-06T06:06:25;99529.88;;;5.47;83.53
76128;BME280;64873;50.102;14.434;2024-03-06T06:08:51;99534.00;;;5.26;83.96
76128;BME280;64873;50.102;14.434;2024-03-06T06:11:17;99539.00;;;5.44;83.41
76128;BME280;64873;50.102;14.434;2024-03-06T06:13:42;99541.00;;;5.42;83.75
76128;BME280;64873;50.102;14.434;2024-03-06T06:16:07;99540.31;;;5.48;83.77
76128;BME280;64873;50.102;14.434;2024-03-06T06:18:33;99552.91;;;5.46;83.63
76128;BME280;64873;50.102;14.434;2024-03-06T06:20:58;99524.88;;;5.29;83.75
76128;BME280;64873;50.102;14.434;2024-03-06T06:23:24;99535.13;;;5.32;83.57
76128;BME280;64873;50.102;14.434;2024-03-06T06:25:50;99554.44;;;5.41;84.17
76128;BME280;64873;50.102;14.434;2024-03-06T06:28:15;99562.31;;;5.49;83.84
76128;BME280;64873;50.102;14.434;2024-03-06T06:30:41;99538.88;;;5.38;84.30
76128;BME280;64873;50.102;14.434;2024-03-06T06:33:06;99548.97;;;5.42;84.45
76128;BME280;64873;50.102;14.434;2024-03-06T06:35:33;99559.88;;;5.47;84.89
76128;BME280;64873;50.102;14.434;2024-03-06T06:38:00;99568.34;;;5.66;84.74
76128;BME280;64873;50.102;14.434;2024-03-06T06:40:25;99560.38;;;5.66;84.59
76128;BME280;64873;50.102;14.434;2024-03-06T06:42:50;99579.88;;;5.73;84.71
76128;BME280;64873;50.102;14.434;2024-03-06T06:45:17;99587.78;;;5.81;84.73
76128;BME280;64873;50.102;14.434;2024-03-06T06:47:43;99557.94;;;5.79;84.55
76128;BME280;64873;50.102;14.434;2024-03-06T06:50:09;99572.09;;;5.71;85.50
76128;BME280;64873;50.102;14.434;2024-03-06T06:52:35;99564.91;;;5.80;84.40
76128;BME280;64873;50.102;14.434;2024-03-06T06:55:01;99571.94;;;5.96;84.31
76128;BME280;64873;50.102;14.434;2024-03-06T06:57:27;99573.66;;;6.03;84.04
76128;BME280;64873;50.102;14.434;2024-03-06T06:59:52;99593.28;;;6.17;83.00
76128;BME280;64873;50.102;14.434;2024-03-06T07:02:18;99587.16;;;6.17;83.21
76128;BME280;64873;50.102;14.434;2024-03-06T07:04:43;99590.44;;;6.19;82.54
76128;BME280;64873;50.102;14.434;2024-03-06T07:07:09;99590.09;;;6.22;83.09
76128;BME280;64873;50.102;14.434;2024-03-06T07:09:34;99595.22;;;6.38;82.18
76128;BME280;64873;50.102;14.434;2024-03-06T07:12:00;99595.78;;;6.48;81.07
76128;BME280;64873;50.102;14.434;2024-03-06T07:14:25;99580.94;;;6.39;81.13
76128;BME280;64873;50.102;14.434;2024-03-06T07:16:50;99602.22;;;6.54;80.95
76128;BME280;64873;50.102;14.434;2024-03-06T07:19:16;99592.81;;;6.13;81.68
76128;BME280;64873;50.102;14.434;2024-03-06T07:21:42;99605.66;;;6.25;82.25
76128;BME280;64873;50.102;14.434;2024-03-06T07:24:07;99600.56;;;6.53;80.18
76128;BME280;64873;50.102;14.434;2024-03-06T07:26:33;99602.00;;;6.55;80.12
76128;BME280;64873;50.102;14.434;2024-03-06T07:28:58;99599.81;;;6.74;79.36
76128;BME280;64873;50.102;14.434;2024-03-06T07:31:24;99608.78;;;6.43;79.86
76128;BME280;64873;50.102;14.434;2024-03-06T07:33:50;99604.03;;;6.83;78.94
76128;BME280;64873;50.102;14.434;2024-03-06T07:36:16;99624.91;;;6.71;79.83
76128;BME280;64873;50.102;14.434;2024-03-06T07:38:44;99602.94;;;6.77;78.30
76128;BME280;64873;50.102;14.434;2024-03-06T07:41:09;99617.78;;;6.86;77.80
76128;BME280;64873;50.102;14.434;2024-03-06T07:43:36;99622.09;;;6.87;77.88
76128;BME280;64873;50.102;14.434;2024-03-06T07:46:03;99609.63;;;6.88;77.69
76128;BME280;64873;50.102;14.434;2024-03-06T07:48:36;99619.31;;;6.95;77.56
76128;BME280;64873;50.102;14.434;2024-03-06T07:51:01;99630.69;;;6.75;78.93
76128;BME280;64873;50.102;14.434;2024-03-06T07:53:27;99621.88;;;6.74;78.08
76128;BME280;64873;50.102;14.434;2024-03-06T07:55:52;99624.44;;;6.97;77.91
76128;BME280;64873;50.102;14.434;2024-03-06T07:58:17;99625.13;;;7.20;76.93
76128;BME280;64873;50.102;14.434;2024-03-06T08:00:43;99617.16;;;7.20;77.51
76128;BME280;64873;50.102;14.434;2024-03-06T08:03:08;99625.06;;;7.29;75.99
76128;BME280;64873;50.102;14.434;2024-03-06T08:05:33;99622.00;;;7.32;77.42
76128;BME280;64873;50.102;14.434;2024-03-06T08:07:59;99633.34;;;7.04;76.46
76128;BME280;64873;50.102;14.434;2024-03-06T08:10:24;99615.19;;;7.08;76.49
76128;BME280;64873;50.102;14.434;2024-03-06T08:12:49;99639.09;;;7.22;76.28
76128;BME280;64873;50.102;14.434;2024-03-06T08:15:15;99614.06;;;7.17;76.09
76128;BME280;64873;50.102;14.434;2024-03-06T08:17:43;99639.88;;;7.38;75.76
76128;BME280;64873;50.102;14.434;2024-03-06T08:20:09;99638.38;;;7.50;75.49
76128;BME280;64873;50.102;14.434;2024-03-06T08:22:37;99637.88;;;7.40;75.93
76128;BME280;64873;50.102;14.434;2024-03-06T08:25:07;99639.28;;;7.57;75.31
76128;BME280;64873;50.102;14.434;2024-03-06T08:27:34;99641.34;;;7.62;74.59
76128;BME280;64873;50.102;14.434;2024-03-06T08:30:00;99629.63;;;7.56;74.14
76128;BME280;64873;50.102;14.434;2024-03-06T08:32:26;99647.66;;;7.75;74.31
76128;BME280;64873;50.102;14.434;2024-03-06T08:34:52;99641.75;;;7.59;74.07
76128;BME280;64873;50.102;14.434;2024-03-06T08:37:18;99640.31;;;7.99;74.02
76128;BME280;64873;50.102;14.434;2024-03-06T08:39:43;99627.13;;;7.69;73.86
76128;BME280;64873;50.102;14.434;2024-03-06T08:42:08;99649.63;;;8.10;74.21
76128;BME280;64873;50.102;14.434;2024-03-06T08:44:34;99644.44;;;7.44;75.39
76128;BME280;64873;50.102;14.434;2024-03-06T08:46:59;99646.09;;;7.45;76.21
76128;BME280;64873;50.102;14.434;2024-03-06T08:49:25;99643.63;;;8.29;73.81
76128;BME280;64873;50.102;14.434;2024-03-06T08:51:50;99623.22;;;7.87;74.59
76128;BME280;64873;50.102;14.434;2024-03-06T08:54:15;99627.41;;;7.74;74.36
76128;BME280;64873;50.102;14.434;2024-03-06T08:56:43;99624.72;;;7.74;75.56
76128;BME280;64873;50.102;14.434;2024-03-06T08:59:09;99620.78;;;7.70;74.97
76128;BME280;64873;50.102;14.434;2024-03-06T09:01:34;99640.22;;;7.71;74.67
76128;BME280;64873;50.102;14.434;2024-03-06T09:04:00;99614.19;;;7.45;74.65
76128;BME280;64873;50.102;14.434;2024-03-06T09:06:25;99643.19;;;7.40;74.84
76128;BME280;64873;50.102;14.434;2024-03-06T09:08:50;99642.44;;;7.31;77.49
76128;BME280;64873;50.102;14.434;2024-03-06T09:11:16;99637.47;;;7.43;75.16
76128;BME280;64873;50.102;14.434;2024-03-06T09:13:41;99633.44;;;7.47;75.41
76128;BME280;64873;50.102;14.434;2024-03-06T09:16:07;99636.63;;;7.57;75.16
76128;BME280;64873;50.102;14.434;2024-03-06T09:18:32;99649.00;;;7.50;75.26
76128;BME280;64873;50.102;14.434;2024-03-06T09:20:57;99620.22;;;7.54;76.08
76128;BME280;64873;50.102;14.434;2024-03-06T09:23:23;99631.19;;;7.65;74.79
76128;BME280;64873;50.102;14.434;2024-03-06T09:25:48;99649.66;;;7.73;74.49
76128;BME280;64873;50.102;14.434;2024-03-06T09:28:14;99639.28;;;7.79;74.07
76128;BME280;64873;50.102;14.434;2024-03-06T09:30:40;99641.56;;;7.82;74.49
76128;BME280;64873;50.102;14.434;2024-03-06T09:33:06;99649.16;;;8.06;73.43
76128;BME280;64873;50.102;14.434;2024-03-06T09:35:32;99648.84;;;8.16;73.63
76128;BME280;64873;50.102;14.434;2024-03-06T09:37:58;99628.47;;;8.29;73.07
76128;BME280;64873;50.102;14.434;2024-03-06T09:40:24;99622.19;;;8.09;72.81
76128;BME280;64873;50.102;14.434;2024-03-06T09:42:50;99648.59;;;8.95;71.36
76128;BME280;64873;50.102;14.434;2024-03-06T09:45:16;99650.34;;;9.09;69.78
76128;BME280;64873;50.102;14.434;2024-03-06T09:47:43;99647.88;;;9.14;69.27
76128;BME280;64873;50.102;14.434;2024-03-06T09:50:09;99651.47;;;9.34;69.01
76128;BME280;64873;50.102;14.434;2024-03-06T09:52:36;99651.03;;;9.38;68.05
76128;BME280;64873;50.102;14.434;2024-03-06T09:55:02;99649.50;;;9.08;68.04
76128;BME280;64873;50.102;14.434;2024-03-06T09:57:29;99643.63;;;8.85;68.58
76128;BME280;64873;50.102;14.434;2024-03-06T09:59:55;99641.56;;;8.80;68.56
76128;BME280;64873;50.102;14.434;2024-03-06T10:02:41;99662.56;;;8.97;68.13
76128;BME280;64873;50.102;14.434;2024-03-06T10:05:23;99651.13;;;9.03;68.06
76128;BME280;64873;50.102;14.434;2024-03-06T10:07:52;99663.81;;;9.01;67.87
76128;BME280;64873;50.102;14.434;2024-03-06T10:10:19;99656.53;;;9.23;66.87
76128;BME280;64873;50.102;14.434;2024-03-06T10:12:45;99659.91;;;9.45;66.10
76128;BME280;64873;50.102;14.434;2024-03-06T10:15:13;99663.19;;;9.40;65.57
76128;BME280;64873;50.102;14.434;2024-03-06T10:17:38;99647.81;;;9.55;64.37
76128;BME280;64873;50.102;14.434;2024-03-06T10:20:23;99660.75;;;9.52;65.02
76128;BME280;64873;50.102;14.434;2024-03-06T10:22:53;99633.38;;;9.23;65.41
76128;BME280;64873;50.102;14.434;2024-03-06T10:25:22;99667.06;;;9.38;65.80
76128;BME280;64873;50.102;14.434;2024-03-06T10:28:20;99661.00;;;9.09;67.35
76128;BME280;64873;50.102;14.434;2024-03-06T10:30:48;99661.06;;;9.22;67.38
76128;BME280;64873;50.102;14.434;2024-03-06T10:33:14;99660.25;;;9.28;67.11
76128;BME280;64873;50.102;14.434;2024-03-06T10:35:41;99667.72;;;9.46;66.01
76128;BME280;64873;50.102;14.434;2024-03-06T10:38:08;99667.81;;;9.25;65.96
76128;BME280;64873;50.102;14.434;2024-03-06T10:40:35;99655.06;;;9.20;65.99
76128;BME280;64873;50.102;14.434;2024-03-06T10:43:02;99645.88;;;9.23;65.80
76128;BME280;64873;50.102;14.434;2024-03-06T10:48:07;99664.75;;;9.21;65.69
76128;BME280;64873;50.102;14.434;2024-03-06T10:50:33;99661.09;;;9.35;65.89
76128;BME280;64873;50.102;14.434;2024-03-06T10:52:59;99651.91;;;9.45;65.98
76128;BME280;64873;50.102;14.434;2024-03-06T10:55:28;99640.78;;;9.34;65.07
76128;BME280;64873;50.102;14.434;2024-03-06T10:57:55;99624.19;;;9.39;64.99
76128;BME280;64873;50.102;14.434;2024-03-06T11:00:23;99649.75;;;9.75;64.61
76128;BME280;64873;50.102;14.434;2024-03-06T11:02:51;99651.00;;;9.92;63.83
76128;BME280;64873;50.102;14.434;2024-03-06T11:05:18;99647.53;;;9.98;64.56
76128;BME280;64873;50.102;14.434;2024-03-06T11:07:44;99654.72;;;9.98;63.92
76128;BME280;64873;50.102;14.434;2024-03-06T11:10:10;99642.84;;;9.32;65.83
76128;BME280;64873;50.102;14.434;2024-03-06T11:12:42;99640.03;;;9.54;64.73
76128;BME280;64873;50.102;14.434;2024-03-06T11:15:13;99634.44;;;9.35;65.30
76128;BME280;64873;50.102;14.434;2024-03-06T11:17:39;99655.50;;;9.17;66.08
76128;BME280;64873;50.102;14.434;2024-03-06T11:28:11;99637.44;;;9.80;63.50
76128;BME280;64873;50.102;14.434;2024-03-06T11:31:01;99646.06;;;9.96;62.89
76128;BME280;64873;50.102;14.434;2024-03-06T11:33:41;99642.34;;;9.77;63.87
76128;BME280;64873;50.102;14.434;2024-03-06T11:36:23;99635.50;;;9.48;63.81
76128;BME280;64873;50.102;14.434;2024-03-06T11:39:06;99638.34;;;9.40;61.54
76128;BME280;64873;50.102;14.434;2024-03-06T11:41:46;99638.19;;;9.54;62.09
76128;BME280;64873;50.102;14.434;2024-03-06T11:44:17;99619.50;;;9.61;61.62
76128;BME280;64873;50.102;14.434;2024-03-06T11:49:17;99631.50;;;9.92;60.81
76128;BME280;64873;50.102;14.434;2024-03-06T11:51:45;99635.22;;;10.10;59.97
76128;BME280;64873;50.102;14.434;2024-03-06T11:54:11;99621.66;;;9.99;59.22
76128;BME280;64873;50.102;14.434;2024-03-06T11:56:39;99623.44;;;9.78;59.13
76128;BME280;64873;50.102;14.434;2024-03-06T11:59:04;99613.38;;;9.67;59.83
76128;BME280;64873;50.102;14.434;2024-03-06T12:01:32;99634.78;;;9.80;59.83
76128;BME280;64873;50.102;14.434;2024-03-06T12:03:57;99630.84;;;9.76;60.68
76128;BME280;64873;50.102;14.434;2024-03-06T12:06:23;99635.75;;;9.66;61.53
76128;BME280;64873;50.102;14.434;2024-03-06T12:08:48;99620.53;;;9.60;61.63
76128;BME280;64873;50.102;14.434;2024-03-06T12:11:14;99619.03;;;9.38;62.18
76128;BME280;64873;50.102;14.434;2024-03-06T12:13:41;99612.03;;;9.23;62.52
76128;BME280;64873;50.102;14.434;2024-03-06T12:16:07;99619.19;;;9.16;63.14
76128;BME280;64873;50.102;14.434;2024-03-06T12:18:33;99624.97;;;9.26;63.13
76128;BME280;64873;50.102;14.434;2024-03-06T12:21:01;99595.44;;;9.28;62.34
76128;BME280;64873;50.102;14.434;2024-03-06T12:23:28;99594.63;;;9.34;62.42
76128;BME280;64873;50.102;14.434;2024-03-06T12:26:09;99597.94;;;9.49;62.02
76128;BME280;64873;50.102;14.434;2024-03-06T12:28:39;99610.47;;;9.55;61.85
76128;BME280;64873;50.102;14.434;2024-03-06T12:31:05;99615.56;;;9.44;61.79
76128;BME280;64873;50.102;14.434;2024-03-06T12:33:33;99606.16;;;9.48;61.41
76128;BME280;64873;50.102;14.434;2024-03-06T12:36:06;99582.16;;;9.48;61.48
76128;BME280;64873;50.102;14.434;2024-03-06T12:38:32;99588.13;;;9.63;60.62
76128;BME280;64873;50.102;14.434;2024-03-06T12:40:59;99592.25;;;9.72;60.90
76128;BME280;64873;50.102;14.434;2024-03-06T12:43:25;99602.78;;;10.27;59.23
76128;BME280;64873;50.102;14.434;2024-03-06T12:45:51;99596.38;;;10.48;57.02
76128;BME280;64873;50.102;14.434;2024-03-06T12:48:20;99603.28;;;10.88;54.98
76128;BME280;64873;50.102;14.434;2024-03-06T12:50:46;99588.44;;;10.99;54.03
76128;BME280;64873;50.102;14.434;2024-03-06T12:53:17;99599.59;;;10.83;53.20
76128;BME280;64873;50.102;14.434;2024-03-06T12:55:42;99591.44;;;10.58;53.66
76128;BME280;64873;50.102;14.434;2024-03-06T12:58:11;99587.13;;;10.57;54.07
76128;BME280;64873;50.102;14.434;2024-03-06T13:00:36;99598.84;;;10.43;54.86
76128;BME280;64873;50.102;14.434;2024-03-06T13:03:02;99593.94;;;10.39;55.00
76128;BME280;64873;50.102;14.434;2024-03-06T13:05:27;99593.09;;;10.26;55.12
76128;BME280;64873;50.102;14.434;2024-03-06T13:07:52;99584.88;;;10.14;55.48
76128;BME280;64873;50.102;14.434;2024-03-06T13:10:18;99590.44;;;10.06;55.98